createdAt,value
2022-08-17T00:00:57.543Z,26.96
2022-08-17T00:02:01.555Z,26.78
2022-08-17T00:03:24.112Z,27.19
2022-08-17T00:04:26.325Z,26.72
2022-08-17T00:05:35.191Z,26.95
2022-08-17T00:06:37.434Z,26.69
2022-08-17T00:07:39.691Z,26.66
2022-08-17T00:08:45.401Z,26.92
2022-08-17T00:09:47.711Z,26.62
2022-08-17T00:10:51.040Z,26.75
2022-08-17T00:12:41.807Z,26.61
2022-08-17T00:13:21.377Z,27.06
2022-08-17T00:14:23.712Z,26.65
2022-08-17T00:15:26.387Z,26.59
2022-08-17T00:16:52.589Z,26.85
2022-08-17T00:17:57.196Z,26.60
2022-08-17T00:19:08.392Z,26.77
2022-08-17T00:20:12.077Z,26.69
2022-08-17T00:21:16.055Z,26.73
2022-08-17T00:22:34.493Z,26.56
2022-08-17T00:23:44.473Z,26.72
2022-08-17T00:24:51.558Z,26.52
2022-08-17T00:25:54.240Z,26.56
2022-08-17T00:26:56.437Z,26.45
2022-08-17T00:27:58.629Z,26.43
2022-08-17T00:29:02.919Z,26.42
2022-08-17T00:30:08.127Z,26.64
2022-08-17T00:31:11.762Z,26.58
2022-08-17T00:33:12.041Z,26.46
2022-08-17T00:33:38.184Z,26.50
2022-08-17T00:34:40.369Z,26.35
2022-08-17T00:35:43.147Z,26.43
2022-08-17T00:36:45.403Z,26.34
2022-08-17T00:37:47.578Z,26.33
2022-08-17T00:38:50.370Z,26.38
2022-08-17T00:39:52.663Z,26.29
2022-08-17T00:41:02.388Z,26.63
2022-08-17T00:42:15.985Z,26.63
2022-08-17T00:43:20.181Z,26.51
2022-08-17T00:44:22.589Z,26.25
2022-08-17T00:45:32.691Z,26.22
2022-08-17T00:46:39.279Z,26.47
2022-08-17T00:47:42.277Z,26.28
2022-08-17T00:48:45.261Z,26.35
2022-08-17T00:49:47.476Z,26.37
2022-08-17T00:51:07.102Z,26.81
2022-08-17T00:52:19.060Z,26.78
2022-08-17T00:53:22.243Z,26.39
2022-08-17T00:54:30.366Z,26.49
2022-08-17T00:55:32.957Z,26.18
2022-08-17T00:56:41.297Z,26.37
2022-08-17T00:57:46.860Z,26.32
2022-08-17T00:58:52.289Z,26.35
2022-08-17T01:00:02.015Z,26.31
2022-08-17T01:01:08.540Z,26.25
2022-08-17T01:02:14.107Z,26.28
2022-08-17T01:03:25.339Z,26.37
2022-08-17T01:04:29.358Z,26.22
2022-08-17T01:05:34.598Z,26.23
2022-08-17T01:06:37.447Z,26.12
2022-08-17T01:07:40.610Z,25.95
2022-08-17T01:08:43.114Z,25.96
2022-08-17T01:09:45.366Z,25.95
2022-08-17T01:10:58.587Z,26.20
2022-08-17T01:12:08.475Z,26.22
2022-08-17T01:13:12.322Z,26.10
2022-08-17T01:14:14.556Z,25.89
2022-08-17T01:15:16.906Z,25.97
2022-08-17T01:16:24.145Z,26.21
2022-08-17T01:17:28.977Z,25.91
2022-08-17T01:18:32.847Z,26.04
2022-08-17T01:19:39.264Z,26.16
2022-08-17T01:20:48.443Z,26.19
2022-08-17T01:21:58.204Z,26.18
2022-08-17T01:23:02.188Z,25.88
2022-08-17T01:24:04.656Z,25.91
2022-08-17T01:25:08.851Z,26.06
2022-08-17T01:26:11.027Z,25.76
2022-08-17T01:27:16.221Z,25.92
2022-08-17T01:28:33.607Z,25.88
2022-08-17T01:29:48.366Z,25.94
2022-08-17T01:30:58.275Z,25.90
2022-08-17T01:32:04.935Z,25.88
2022-08-17T01:33:11.350Z,25.65
2022-08-17T01:34:16.086Z,25.85
2022-08-17T01:35:18.622Z,25.64
2022-08-17T01:36:21.375Z,25.58
2022-08-17T01:37:34.409Z,25.93
2022-08-17T01:38:38.826Z,25.80
2022-08-17T01:39:57.642Z,26.02
2022-08-17T01:41:12.367Z,25.97
2022-08-17T01:42:30.731Z,26.03
2022-08-17T01:43:38.982Z,25.88
2022-08-17T01:44:41.561Z,25.66
2022-08-17T01:45:49.855Z,25.94
2022-08-17T01:47:06.160Z,25.61
2022-08-17T01:48:08.527Z,25.57
2022-08-17T01:49:12.793Z,25.77
2022-08-17T01:50:18.936Z,25.81
2022-08-17T01:51:21.261Z,25.59
2022-08-17T01:52:23.824Z,25.55
2022-08-17T01:53:34.971Z,25.90
2022-08-17T01:54:39.784Z,25.72
2022-08-17T01:56:00.083Z,25.91
2022-08-17T01:57:02.327Z,25.51
2022-08-17T01:58:08.902Z,25.58
2022-08-17T01:59:12.290Z,25.60
2022-08-17T02:00:16.026Z,25.61
2022-08-17T02:01:21.692Z,25.73
2022-08-17T02:02:30.370Z,25.50
2022-08-17T02:03:35.050Z,25.67
2022-08-17T02:04:37.272Z,25.50
2022-08-17T02:05:40.469Z,25.58
2022-08-17T02:06:52.930Z,25.48
2022-08-17T02:08:00.534Z,25.44
2022-08-17T02:09:04.361Z,25.61
2022-08-17T02:10:20.000Z,25.64
2022-08-17T02:11:22.717Z,25.42
2022-08-17T02:12:38.896Z,25.40
2022-08-17T02:13:43.123Z,25.52
2022-08-17T02:14:45.350Z,25.39
2022-08-17T02:15:47.574Z,25.38
2022-08-17T02:16:49.920Z,25.39
2022-08-17T02:17:54.868Z,25.37
2022-08-17T02:18:57.204Z,25.37
2022-08-17T02:19:59.397Z,25.34
2022-08-17T02:21:01.728Z,25.38
2022-08-17T02:22:04.047Z,25.36
2022-08-17T02:23:10.879Z,25.54
2022-08-17T02:24:17.842Z,25.67
2022-08-17T02:25:43.541Z,25.63
2022-08-17T02:26:47.260Z,25.35
2022-08-17T02:27:49.457Z,25.36
2022-08-17T02:28:51.639Z,25.34
2022-08-17T02:29:54.017Z,25.38
2022-08-17T02:31:00.646Z,25.56
2022-08-17T02:32:05.250Z,25.47
2022-08-17T02:33:09.415Z,25.35
2022-08-17T02:34:12.493Z,25.40
2022-08-17T02:35:14.802Z,25.34
2022-08-17T02:36:26.829Z,25.31
2022-08-17T02:37:30.963Z,25.45
2022-08-17T02:38:33.102Z,25.28
2022-08-17T02:39:35.304Z,25.26
2022-08-17T02:40:40.559Z,25.28
2022-08-17T02:41:43.715Z,25.26
2022-08-17T02:42:46.196Z,25.25
2022-08-17T02:43:48.409Z,25.24
2022-08-17T02:44:50.762Z,25.22
2022-08-17T02:45:54.081Z,25.36
2022-08-17T02:46:56.486Z,25.26
2022-08-17T02:47:58.725Z,25.24
2022-08-17T02:49:00.979Z,25.25
2022-08-17T02:50:05.017Z,25.44
2022-08-17T02:51:07.205Z,25.25
2022-08-17T02:52:09.433Z,25.27
2022-08-17T02:53:11.729Z,25.25
2022-08-17T02:54:41.291Z,25.28
2022-08-17T02:55:40.265Z,25.55
2022-08-17T02:56:42.868Z,25.38
2022-08-17T02:57:45.370Z,25.37
2022-08-17T02:58:47.566Z,25.25
2022-08-17T02:59:49.787Z,25.30
2022-08-17T03:00:51.979Z,25.32
2022-08-17T03:01:54.231Z,25.32
2022-08-17T03:02:57.810Z,25.50
2022-08-17T03:04:00.689Z,25.35
2022-08-17T03:05:02.995Z,25.35
2022-08-17T03:06:07.330Z,25.45
2022-08-17T03:07:09.702Z,25.34
2022-08-17T03:08:13.420Z,25.45
2022-08-17T03:09:16.799Z,25.38
2022-08-17T03:10:20.148Z,25.50
2022-08-17T03:11:22.358Z,25.42
2022-08-17T03:12:24.563Z,25.42
2022-08-17T03:13:27.514Z,25.42
2022-08-17T03:14:32.177Z,25.35
2022-08-17T03:15:34.974Z,25.33
2022-08-17T03:16:37.193Z,25.31
2022-08-17T03:17:42.004Z,25.31
2022-08-17T03:18:44.201Z,25.26
2022-08-17T03:19:46.368Z,25.25
2022-08-17T03:20:48.830Z,25.23
2022-08-17T03:21:55.209Z,25.24
2022-08-17T03:23:02.654Z,25.34
2022-08-17T03:24:08.967Z,25.27
2022-08-17T03:25:14.976Z,25.45
2022-08-17T03:26:21.775Z,25.25
2022-08-17T03:27:24.028Z,25.25
2022-08-17T03:28:28.200Z,25.36
2022-08-17T03:29:30.379Z,25.22
2022-08-17T03:30:33.254Z,25.36
2022-08-17T03:31:36.915Z,25.21
2022-08-17T03:32:42.632Z,25.47
2022-08-17T03:33:44.887Z,25.21
2022-08-17T03:34:47.179Z,25.25
2022-08-17T03:35:49.564Z,25.27
2022-08-17T03:36:51.759Z,25.17
2022-08-17T03:38:00.125Z,25.36
2022-08-17T03:39:03.823Z,25.22
2022-08-17T03:40:07.931Z,25.28
2022-08-17T03:41:10.197Z,25.12
2022-08-17T03:42:31.492Z,25.47
2022-08-17T03:43:34.879Z,25.20
2022-08-17T03:44:37.036Z,25.21
2022-08-17T03:45:58.848Z,25.24
2022-08-17T03:47:19.604Z,25.31
2022-08-17T03:48:40.855Z,25.34
2022-08-17T03:50:01.484Z,25.24
2022-08-17T03:51:22.394Z,25.22
2022-08-17T03:52:42.982Z,25.21
2022-08-17T03:54:11.836Z,25.48
2022-08-17T03:55:35.966Z,25.20
2022-08-17T03:56:45.034Z,25.21
2022-08-17T03:57:48.871Z,25.16
2022-08-17T03:58:51.067Z,25.13
2022-08-17T03:59:54.155Z,25.31
2022-08-17T04:00:56.454Z,25.10
2022-08-17T04:02:03.845Z,25.41
2022-08-17T04:03:06.562Z,25.10
2022-08-17T04:04:11.792Z,25.13
2022-08-17T04:05:15.215Z,25.17
2022-08-17T04:06:17.440Z,25.08
2022-08-17T04:07:21.840Z,25.23
2022-08-17T04:08:24.140Z,25.05
2022-08-17T04:09:26.471Z,25.10
2022-08-17T04:10:30.207Z,25.14
2022-08-17T04:12:58.422Z,24.95
2022-08-17T04:14:01.404Z,25.03
2022-08-17T04:15:03.858Z,25.02
2022-08-17T04:16:06.242Z,25.04
2022-08-17T04:17:08.616Z,25.00
2022-08-17T04:18:11.064Z,25.00
2022-08-17T04:19:13.373Z,25.01
2022-08-17T04:20:18.651Z,25.25
2022-08-17T04:21:21.405Z,25.03
2022-08-17T04:22:31.882Z,25.12
2022-08-17T04:23:37.833Z,24.99
2022-08-17T04:24:40.017Z,24.94
2022-08-17T04:25:45.682Z,25.22
2022-08-17T04:26:52.047Z,24.96
2022-08-17T04:27:56.917Z,25.06
2022-08-17T04:28:59.329Z,24.96
2022-08-17T04:30:02.697Z,25.12
2022-08-17T04:31:05.030Z,25.00
2022-08-17T04:32:08.981Z,25.00
2022-08-17T04:33:14.967Z,25.27
2022-08-17T04:34:19.700Z,25.06
2022-08-17T04:35:30.262Z,25.32
2022-08-17T04:36:34.839Z,25.08
2022-08-17T04:37:37.082Z,25.08
2022-08-17T04:38:42.236Z,25.21
2022-08-17T04:40:04.643Z,25.02
2022-08-17T04:41:27.062Z,25.26
2022-08-17T04:42:29.379Z,25.17
2022-08-17T04:43:32.989Z,25.42
2022-08-17T04:44:36.881Z,25.17
2022-08-17T04:45:55.295Z,25.36
2022-08-17T04:46:58.671Z,25.13
2022-08-17T04:48:01.184Z,25.15
2022-08-17T04:49:09.313Z,25.45
2022-08-17T04:50:11.602Z,25.14
2022-08-17T04:51:32.689Z,25.43
2022-08-17T04:52:45.522Z,25.57
2022-08-17T04:53:54.712Z,25.43
2022-08-17T04:54:57.301Z,25.00
2022-08-17T04:55:59.542Z,25.14
2022-08-17T04:57:01.772Z,25.11
2022-08-17T04:58:04.329Z,25.19
2022-08-17T04:59:10.009Z,25.43
2022-08-17T05:00:12.658Z,25.31
2022-08-17T05:01:16.314Z,25.43
2022-08-17T05:02:25.567Z,25.78
2022-08-17T05:03:28.123Z,25.36
2022-08-17T05:04:34.122Z,25.26
2022-08-17T05:05:43.310Z,25.53
2022-08-17T05:06:46.693Z,25.48
2022-08-17T05:07:54.418Z,25.71
2022-08-17T05:08:58.007Z,25.58
2022-08-17T05:10:00.346Z,25.46
2022-08-17T05:11:02.651Z,25.39
2022-08-17T05:12:05.983Z,25.43
2022-08-17T05:13:19.015Z,25.72
2022-08-17T05:14:21.847Z,25.49
2022-08-17T05:15:37.046Z,25.73
2022-08-17T05:16:49.350Z,25.77
2022-08-17T05:17:51.599Z,25.50
2022-08-17T05:18:54.162Z,25.54
2022-08-17T05:19:56.356Z,25.62
2022-08-17T05:20:58.701Z,25.65
2022-08-17T05:22:05.580Z,26.04
2022-08-17T05:23:11.580Z,25.99
2022-08-17T05:24:35.381Z,25.66
2022-08-17T05:25:43.174Z,26.06
2022-08-17T05:26:50.066Z,25.80
2022-08-17T05:27:55.221Z,26.01
2022-08-17T05:29:02.570Z,26.09
2022-08-17T05:30:05.639Z,25.90
2022-08-17T05:31:07.989Z,25.81
2022-08-17T05:32:38.921Z,26.04
2022-08-17T05:33:38.206Z,26.22
2022-08-17T05:34:42.663Z,26.00
2022-08-17T05:35:47.855Z,26.23
2022-08-17T05:36:50.017Z,26.05
2022-08-17T05:37:53.277Z,25.87
2022-08-17T05:38:58.885Z,25.96
2022-08-17T05:40:01.183Z,25.93
2022-08-17T05:41:05.967Z,26.21
2022-08-17T05:42:09.184Z,26.10
2022-08-17T05:43:16.117Z,25.98
2022-08-17T05:44:18.327Z,25.88
2022-08-17T05:45:46.089Z,26.12
2022-08-17T05:46:49.341Z,26.24
2022-08-17T05:47:51.785Z,26.11
2022-08-17T05:49:02.509Z,26.35
2022-08-17T05:50:09.517Z,26.58
2022-08-17T05:51:39.427Z,26.72
2022-08-17T05:52:53.735Z,26.65
2022-08-17T05:54:20.731Z,26.78
2022-08-17T05:56:04.178Z,26.92
2022-08-17T05:57:34.390Z,27.09
2022-08-17T05:58:48.495Z,26.96
2022-08-17T06:00:09.940Z,27.06
2022-08-17T06:01:27.237Z,26.98
2022-08-17T06:02:53.007Z,27.08
2022-08-17T06:04:16.659Z,27.23
2022-08-17T06:05:31.075Z,27.14
2022-08-17T06:06:40.291Z,26.77
2022-08-17T06:08:06.736Z,27.37
2022-08-17T06:09:33.867Z,27.45
2022-08-17T06:10:58.938Z,27.48
2022-08-17T06:12:25.821Z,27.71
2022-08-17T06:13:55.787Z,27.82
2022-08-17T06:15:24.949Z,27.59
2022-08-17T06:16:36.366Z,27.15
2022-08-17T06:17:39.144Z,26.89
2022-08-17T06:18:46.994Z,27.09
2022-08-17T06:19:52.800Z,26.70
2022-08-17T06:21:00.472Z,27.07
2022-08-17T06:22:05.771Z,26.51
2022-08-17T06:23:14.408Z,26.75
2022-08-17T06:24:35.277Z,26.81
2022-08-17T06:25:46.823Z,27.03
2022-08-17T06:26:50.251Z,26.75
2022-08-17T06:28:05.382Z,27.11
2022-08-17T06:29:28.464Z,27.11
2022-08-17T06:31:00.239Z,27.05
2022-08-17T06:32:00.091Z,26.90
2022-08-17T06:33:07.942Z,27.29
2022-08-17T06:34:12.593Z,27.29
2022-08-17T06:35:22.065Z,27.63
2022-08-17T06:36:37.905Z,27.91
2022-08-17T06:38:07.396Z,28.38
2022-08-17T06:39:36.990Z,28.57
2022-08-17T06:41:00.852Z,28.81
2022-08-17T06:43:02.776Z,29.05
2022-08-17T06:43:51.228Z,28.88
2022-08-17T06:45:15.314Z,29.67
2022-08-17T06:46:35.222Z,30.03
2022-08-17T06:47:47.470Z,30.51
2022-08-17T06:49:11.605Z,31.06
2022-08-17T06:50:36.005Z,30.91
2022-08-17T06:51:41.506Z,31.15
2022-08-17T06:53:09.722Z,31.28
2022-08-17T06:54:45.803Z,31.08
2022-08-17T06:56:10.536Z,31.08
2022-08-17T06:57:19.670Z,31.18
2022-08-17T06:58:29.558Z,30.69
2022-08-17T06:59:55.204Z,30.60
2022-08-17T07:01:08.380Z,30.74
2022-08-17T07:02:18.388Z,30.85
2022-08-17T07:03:37.745Z,31.23
2022-08-17T07:04:41.335Z,30.92
2022-08-17T07:05:54.897Z,31.52
2022-08-17T07:07:27.625Z,31.69
2022-08-17T07:08:51.156Z,32.12
2022-08-17T07:09:55.462Z,32.32
2022-08-17T07:11:02.591Z,31.93
2022-08-17T07:12:43.212Z,32.18
2022-08-17T07:13:57.449Z,32.83
2022-08-17T07:15:07.653Z,32.89
2022-08-17T07:16:33.817Z,33.63
2022-08-17T07:17:46.554Z,33.17
2022-08-17T07:18:53.120Z,33.79
2022-08-17T07:20:15.203Z,33.97
2022-08-17T07:21:29.209Z,34.37
2022-08-17T07:22:57.196Z,34.33
2022-08-17T07:24:30.871Z,34.60
2022-08-17T07:25:33.225Z,34.68
2022-08-17T07:26:35.519Z,34.58
2022-08-17T07:27:45.290Z,35.43
2022-08-17T07:28:47.962Z,35.02
2022-08-17T07:29:54.415Z,35.45
2022-08-17T07:30:56.616Z,35.38
2022-08-17T07:31:59.213Z,35.28
2022-08-17T07:33:12.551Z,34.78
2022-08-17T07:34:15.818Z,34.51
2022-08-17T07:35:37.534Z,35.15
2022-08-17T07:36:42.895Z,34.08
2022-08-17T07:37:55.639Z,34.30
2022-08-17T07:38:58.321Z,34.00
2022-08-17T07:40:20.945Z,34.21
2022-08-17T07:41:23.931Z,33.83
2022-08-17T07:42:26.201Z,34.04
2022-08-17T07:43:36.883Z,34.00
2022-08-17T07:44:49.420Z,34.40
2022-08-17T07:46:45.076Z,34.47
2022-08-17T07:48:10.547Z,34.24
2022-08-17T07:49:22.098Z,34.13
2022-08-17T07:50:28.023Z,34.33
2022-08-17T07:51:37.943Z,34.56
2022-08-17T07:52:51.366Z,34.49
2022-08-17T07:54:13.134Z,34.26
2022-08-17T07:55:29.394Z,34.21
2022-08-17T07:56:34.650Z,33.53
2022-08-17T07:57:37.197Z,33.66
2022-08-17T07:58:39.513Z,33.81
2022-08-17T08:00:03.230Z,33.80
2022-08-17T08:01:15.542Z,33.57
2022-08-17T08:02:34.199Z,33.77
2022-08-17T08:03:44.804Z,33.95
2022-08-17T08:05:06.749Z,33.81
2022-08-17T08:06:20.941Z,33.61
2022-08-17T08:07:26.787Z,33.56
2022-08-17T08:08:29.118Z,33.29
2022-08-17T08:09:34.249Z,33.35
2022-08-17T08:10:42.852Z,32.88
2022-08-17T08:11:48.417Z,32.55
2022-08-17T08:13:05.709Z,33.20
2022-08-17T08:14:42.092Z,33.35
2022-08-17T08:15:54.623Z,33.30
2022-08-17T08:17:03.332Z,33.63
2022-08-17T08:18:53.773Z,33.54
2022-08-17T08:19:45.753Z,32.55
2022-08-17T08:20:59.097Z,32.93
2022-08-17T08:22:34.919Z,32.96
2022-08-17T08:23:37.248Z,32.60
2022-08-17T08:24:51.428Z,33.17
2022-08-17T08:26:30.984Z,33.20
2022-08-17T08:28:10.812Z,32.85
2022-08-17T08:29:49.802Z,32.70
2022-08-17T08:31:03.442Z,32.68
2022-08-17T08:32:15.453Z,32.91
2022-08-17T08:33:34.571Z,32.96
2022-08-17T08:35:13.067Z,33.17
2022-08-17T08:37:12.748Z,33.19
2022-08-17T08:38:53.558Z,33.21
2022-08-17T08:40:13.350Z,33.26
2022-08-17T08:42:07.556Z,33.69
2022-08-17T08:43:37.396Z,34.34
2022-08-17T08:45:04.700Z,34.32
2022-08-17T08:46:13.669Z,34.00
2022-08-17T08:47:37.476Z,33.92
2022-08-17T08:48:59.617Z,34.62
2022-08-17T08:50:37.291Z,34.81
2022-08-17T08:51:56.904Z,34.89
2022-08-17T08:53:11.525Z,35.02
2022-08-17T08:54:13.761Z,34.46
2022-08-17T08:55:27.400Z,34.69
2022-08-17T08:57:23.327Z,34.48
2022-08-17T08:58:31.498Z,33.65
2022-08-17T09:00:19.245Z,34.51
2022-08-17T09:01:28.559Z,34.57
2022-08-17T09:02:45.814Z,34.96
2022-08-17T09:04:10.891Z,34.97
2022-08-17T09:05:36.885Z,35.50
2022-08-17T09:06:48.875Z,35.86
2022-08-17T09:08:16.374Z,36.49
2022-08-17T09:09:50.762Z,37.09
2022-08-17T09:10:59.863Z,36.73
2022-08-17T09:12:13.760Z,36.75
2022-08-17T09:13:22.667Z,36.56
2022-08-17T09:15:08.310Z,36.70
2022-08-17T09:16:23.080Z,37.05
2022-08-17T09:17:38.242Z,37.38
2022-08-17T09:19:03.191Z,37.36
2022-08-17T09:20:28.026Z,37.51
2022-08-17T09:21:47.930Z,37.58
2022-08-17T09:23:08.225Z,37.50
2022-08-17T09:24:20.713Z,36.85
2022-08-17T09:25:31.463Z,37.47
2022-08-17T09:26:40.004Z,37.84
2022-08-17T09:28:00.651Z,37.88
2022-08-17T09:29:08.627Z,38.30
2022-08-17T09:30:11.914Z,38.32
2022-08-17T09:31:49.708Z,38.85
2022-08-17T09:33:01.879Z,39.57
2022-08-17T09:34:16.562Z,39.81
2022-08-17T09:35:36.766Z,39.83
2022-08-17T09:36:45.187Z,40.11
2022-08-17T09:38:25.585Z,40.38
2022-08-17T09:39:54.316Z,40.75
2022-08-17T09:41:06.325Z,40.53
2022-08-17T09:42:37.280Z,39.49
2022-08-17T09:44:10.750Z,39.47
2022-08-17T09:45:42.787Z,39.78
2022-08-17T09:46:53.456Z,39.28
2022-08-17T09:48:14.331Z,39.49
2022-08-17T09:49:33.362Z,39.73
2022-08-17T09:51:03.441Z,39.35
2022-08-17T09:52:20.477Z,39.16
2022-08-17T09:53:22.761Z,39.01
2022-08-17T09:54:39.044Z,39.09
2022-08-17T09:56:00.175Z,38.96
2022-08-17T09:57:31.978Z,39.17
2022-08-17T09:58:47.633Z,39.11
2022-08-17T10:00:11.717Z,39.14
2022-08-17T10:01:41.424Z,38.96
2022-08-17T10:03:21.017Z,38.77
2022-08-17T10:04:29.552Z,38.08
2022-08-17T10:05:48.035Z,38.06
2022-08-17T10:07:24.992Z,38.09
2022-08-17T10:08:58.401Z,38.21
2022-08-17T10:10:16.666Z,38.03
2022-08-17T10:11:52.080Z,38.32
2022-08-17T10:15:08.123Z,40.67
2022-08-17T10:16:25.362Z,41.27
2022-08-17T10:17:50.606Z,41.80
2022-08-17T10:19:10.761Z,41.13
2022-08-17T10:20:20.381Z,41.84
2022-08-17T10:21:42.334Z,42.02
2022-08-17T10:23:15.468Z,42.46
2022-08-17T10:25:21.290Z,42.47
2022-08-17T10:26:20.964Z,43.36
2022-08-17T10:27:29.309Z,43.04
2022-08-17T10:28:39.507Z,43.44
2022-08-17T10:29:59.196Z,43.95
2022-08-17T10:31:33.292Z,44.09
2022-08-17T10:32:49.454Z,44.06
2022-08-17T10:34:18.928Z,44.19
2022-08-17T10:35:45.700Z,44.05
2022-08-17T10:37:09.833Z,43.94
2022-08-17T10:38:37.627Z,43.59
2022-08-17T10:39:54.693Z,42.94
2022-08-17T10:41:15.289Z,42.60
2022-08-17T10:42:30.311Z,41.97
2022-08-17T10:44:38.043Z,42.29
2022-08-17T10:45:28.167Z,42.10
2022-08-17T10:46:52.329Z,43.22
2022-08-17T10:48:07.323Z,43.35
2022-08-17T10:49:18.301Z,43.08
2022-08-17T10:50:57.778Z,42.70
2022-08-17T10:52:21.962Z,42.57
2022-08-17T10:53:48.485Z,42.68
2022-08-17T10:54:50.596Z,41.65
2022-08-17T10:56:11.967Z,40.66
2022-08-17T10:57:34.584Z,40.73
2022-08-17T10:58:57.305Z,39.86
2022-08-17T11:00:06.919Z,39.72
2022-08-17T11:01:12.491Z,39.13
2022-08-17T11:02:26.167Z,39.31
2022-08-17T11:03:28.562Z,38.87
2022-08-17T11:04:49.956Z,39.27
2022-08-17T11:06:04.035Z,39.17
2022-08-17T11:07:25.767Z,39.71
2022-08-17T11:08:49.368Z,39.89
2022-08-17T11:10:16.262Z,39.67
2022-08-17T11:11:36.599Z,39.82
2022-08-17T11:13:01.327Z,39.95
2022-08-17T11:14:32.450Z,39.90
2022-08-17T11:16:28.513Z,40.26
2022-08-17T11:17:51.282Z,40.04
2022-08-17T11:19:08.590Z,40.30
2022-08-17T11:20:52.640Z,40.76
2022-08-17T11:22:22.500Z,41.20
2022-08-17T11:23:39.906Z,41.60
2022-08-17T11:24:53.215Z,41.58
2022-08-17T11:25:57.641Z,41.59
2022-08-17T11:27:22.368Z,42.33
2022-08-17T11:28:35.840Z,42.50
2022-08-17T11:30:10.945Z,42.78
2022-08-17T11:31:39.292Z,42.91
2022-08-17T11:32:54.525Z,42.79
2022-08-17T11:34:02.275Z,43.13
2022-08-17T11:35:07.471Z,42.61
2022-08-17T11:36:22.483Z,42.89
2022-08-17T11:37:29.619Z,43.20
2022-08-17T11:38:49.269Z,42.71
2022-08-17T11:40:18.005Z,43.13
2022-08-17T11:41:48.862Z,43.00
2022-08-17T11:43:08.804Z,42.93
2022-08-17T11:44:39.811Z,42.82
2022-08-17T11:46:06.870Z,42.88
2022-08-17T11:48:02.486Z,42.45
2022-08-17T11:50:03.962Z,42.76
2022-08-17T11:51:27.370Z,42.79
2022-08-17T11:52:47.053Z,42.70
2022-08-17T11:53:50.022Z,42.62
2022-08-17T11:54:52.330Z,42.76
2022-08-17T11:55:57.293Z,42.91
2022-08-17T11:57:21.476Z,42.49
2022-08-17T11:58:29.683Z,41.83
2022-08-17T11:59:35.891Z,41.67
2022-08-17T12:00:59.671Z,42.13
2022-08-17T12:02:04.466Z,42.00
2022-08-17T12:03:26.384Z,41.92
2022-08-17T12:04:30.385Z,41.85
2022-08-17T12:05:34.130Z,41.24
2022-08-17T12:06:50.429Z,41.43
2022-08-17T12:08:18.506Z,41.47
2022-08-17T12:09:25.079Z,41.01
2022-08-17T12:10:34.284Z,41.11
2022-08-17T12:12:13.242Z,41.79
2022-08-17T12:13:17.560Z,41.17
2022-08-17T12:14:45.011Z,41.75
2022-08-17T12:15:52.769Z,42.09
2022-08-17T12:17:04.435Z,42.30
2022-08-17T12:18:06.728Z,41.59
2022-08-17T12:19:19.321Z,42.05
2022-08-17T12:20:27.780Z,42.70
2022-08-17T12:21:33.026Z,42.04
2022-08-17T12:22:54.756Z,42.79
2022-08-17T12:24:13.253Z,43.28
2022-08-17T12:25:25.882Z,43.86
2022-08-17T12:26:33.933Z,43.88
2022-08-17T12:28:01.339Z,43.75
2022-08-17T12:29:06.903Z,43.67
2022-08-17T12:30:15.729Z,43.72
2022-08-17T12:31:27.189Z,43.65
2022-08-17T12:32:34.110Z,43.22
2022-08-17T12:33:37.301Z,42.99
2022-08-17T12:34:42.903Z,43.07
2022-08-17T12:35:46.411Z,42.91
2022-08-17T12:36:51.045Z,43.00
2022-08-17T12:37:53.406Z,42.30
2022-08-17T12:39:13.878Z,42.25
2022-08-17T12:40:22.594Z,42.38
2022-08-17T12:41:38.430Z,42.34
2022-08-17T12:42:52.971Z,40.84
2022-08-17T12:44:03.479Z,41.19
2022-08-17T12:45:08.413Z,41.27
2022-08-17T12:46:17.078Z,40.95
2022-08-17T12:47:23.014Z,40.52
2022-08-17T12:48:28.087Z,40.31
2022-08-17T12:49:36.895Z,40.45
2022-08-17T12:50:43.655Z,40.59
2022-08-17T12:51:47.731Z,40.54
2022-08-17T12:52:50.950Z,40.47
2022-08-17T12:53:57.871Z,39.98
2022-08-17T12:55:21.175Z,40.52
2022-08-17T12:56:23.561Z,39.53
2022-08-17T12:57:43.598Z,39.51
2022-08-17T12:58:53.428Z,39.36
2022-08-17T13:00:01.106Z,39.29
2022-08-17T13:01:09.146Z,39.07
2022-08-17T13:02:22.245Z,39.35
2022-08-17T13:03:36.383Z,39.15
2022-08-17T13:04:40.134Z,39.09
2022-08-17T13:05:52.823Z,38.84
2022-08-17T13:06:59.661Z,38.59
2022-08-17T13:08:14.786Z,39.17
2022-08-17T13:09:35.783Z,39.32
2022-08-17T13:10:43.859Z,38.66
2022-08-17T13:11:50.369Z,38.66
2022-08-17T13:12:53.809Z,38.63
2022-08-17T13:14:08.007Z,38.62
2022-08-17T13:15:44.532Z,38.88
2022-08-17T13:16:53.359Z,38.53
2022-08-17T13:18:09.008Z,38.60
2022-08-17T13:19:39.722Z,38.62
2022-08-17T13:20:53.279Z,38.83
2022-08-17T13:21:58.903Z,38.76
2022-08-17T13:23:07.529Z,38.78
2022-08-17T13:24:27.473Z,38.75
2022-08-17T13:25:30.912Z,38.62
2022-08-17T13:26:37.619Z,38.76
2022-08-17T13:27:42.998Z,38.88
2022-08-17T13:28:51.706Z,38.57
2022-08-17T13:29:58.165Z,38.49
2022-08-17T13:31:28.125Z,38.62
2022-08-17T13:32:42.972Z,38.74
2022-08-17T13:33:46.672Z,38.49
2022-08-17T13:35:14.911Z,38.38
2022-08-17T13:36:30.240Z,38.51
2022-08-17T13:37:35.689Z,38.35
2022-08-17T13:38:49.553Z,38.62
2022-08-17T13:40:10.134Z,38.62
2022-08-17T13:41:34.522Z,38.79
2022-08-17T13:42:51.459Z,38.81
2022-08-17T13:43:54.725Z,38.65
2022-08-17T13:44:57.476Z,39.12
2022-08-17T13:46:10.320Z,39.57
2022-08-17T13:47:20.377Z,39.55
2022-08-17T13:48:33.957Z,39.45
2022-08-17T13:49:41.941Z,38.96
2022-08-17T13:50:57.298Z,39.08
2022-08-17T13:51:59.573Z,38.69
2022-08-17T13:53:26.652Z,38.64
2022-08-17T13:54:34.423Z,38.08
2022-08-17T13:55:36.693Z,37.56
2022-08-17T13:56:49.515Z,38.03
2022-08-17T13:58:05.086Z,37.34
2022-08-17T13:59:15.148Z,37.16
2022-08-17T14:00:30.861Z,37.08
2022-08-17T14:01:53.537Z,37.10
2022-08-17T14:03:00.958Z,37.24
2022-08-17T14:04:10.373Z,37.48
2022-08-17T14:05:12.561Z,37.35
2022-08-17T14:06:15.118Z,37.19
2022-08-17T14:07:39.663Z,37.28
2022-08-17T14:08:41.853Z,37.05
2022-08-17T14:09:49.396Z,36.34
2022-08-17T14:10:58.253Z,36.72
2022-08-17T14:12:02.131Z,36.44
2022-08-17T14:13:05.259Z,36.70
2022-08-17T14:14:07.558Z,36.53
2022-08-17T14:15:13.247Z,36.64
2022-08-17T14:16:15.680Z,36.61
2022-08-17T14:17:18.734Z,36.40
2022-08-17T14:18:55.443Z,36.44
2022-08-17T14:19:43.563Z,36.34
2022-08-17T14:20:46.620Z,36.29
2022-08-17T14:21:49.810Z,36.61
2022-08-17T14:22:55.617Z,36.55
2022-08-17T14:23:58.054Z,36.22
2022-08-17T14:25:01.974Z,36.48
2022-08-17T14:26:04.396Z,36.76
2022-08-17T14:27:09.131Z,36.89
2022-08-17T14:28:11.322Z,37.06
2022-08-17T14:29:15.597Z,36.97
2022-08-17T14:30:19.839Z,36.99
2022-08-17T14:31:22.581Z,36.35
2022-08-17T14:32:29.745Z,36.51
2022-08-17T14:33:33.273Z,35.77
2022-08-17T14:34:35.502Z,35.98
2022-08-17T14:35:37.699Z,35.56
2022-08-17T14:36:41.883Z,35.53
2022-08-17T14:37:51.995Z,35.21
2022-08-17T14:38:54.414Z,35.13
2022-08-17T14:40:02.137Z,35.69
2022-08-17T14:41:04.972Z,35.49
2022-08-17T14:42:07.332Z,35.59
2022-08-17T14:43:09.493Z,35.48
2022-08-17T14:44:12.745Z,35.53
2022-08-17T14:45:30.367Z,35.51
2022-08-17T14:46:35.238Z,35.16
2022-08-17T14:47:39.985Z,35.35
2022-08-17T14:48:42.291Z,34.88
2022-08-17T14:49:47.817Z,35.08
2022-08-17T14:50:50.018Z,34.90
2022-08-17T14:51:52.219Z,34.44
2022-08-17T14:52:58.141Z,34.50
2022-08-17T14:54:01.607Z,34.18
2022-08-17T14:55:05.299Z,34.08
2022-08-17T14:56:07.883Z,33.86
2022-08-17T14:57:22.993Z,33.81
2022-08-17T14:58:32.354Z,32.70
2022-08-17T14:59:35.520Z,31.54
2022-08-17T15:00:38.913Z,31.16
2022-08-17T15:01:41.187Z,30.08
2022-08-17T15:02:55.788Z,29.35
2022-08-17T15:03:58.028Z,29.03
2022-08-17T15:05:02.226Z,28.97
2022-08-17T15:06:05.077Z,28.87
2022-08-17T15:07:08.146Z,28.82
2022-08-17T15:08:10.374Z,28.61
2022-08-17T15:09:12.626Z,28.51
2022-08-17T15:10:16.093Z,28.39
2022-08-17T15:11:18.330Z,28.02
2022-08-17T15:12:26.430Z,28.23
2022-08-17T15:13:34.120Z,27.59
2022-08-17T15:14:36.598Z,27.30
2022-08-17T15:15:39.422Z,27.13
2022-08-17T15:16:41.600Z,26.42
2022-08-17T15:17:45.888Z,25.97
2022-08-17T15:18:49.084Z,25.83
2022-08-17T15:19:51.675Z,25.40
2022-08-17T15:20:54.160Z,24.95
2022-08-17T15:21:57.188Z,25.30
2022-08-17T15:22:59.775Z,25.46
2022-08-17T15:24:03.832Z,25.84
2022-08-17T15:25:08.364Z,25.93
2022-08-17T15:26:11.260Z,25.83